sensor_id;sensor_type;location;lat;lon;timestamp;P1;durP1;ratioP1;P2;durP2;ratioP2
19575;SDS011;41589;51.196;7.074;2023-05-10T00:03:07;0.50;;;0.50;;
19575;SDS011;41589;51.196;7.074;2023-05-10T00:08:08;0.50;;;0.50;;
19575;SDS011;41589;51.196;7.074;2023-05-10T00:13:09;0.57;;;0.57;;
19575;SDS011;41589;51.196;7.074;2023-05-10T00:18:09;0.40;;;0.40;;
19575;SDS011;41589;51.196;7.074;2023-05-10T00:23:09;0.50;;;0.50;;
19575;SDS011;41589;51.196;7.074;2023-05-10T00:28:10;0.60;;;0.60;;
19575;SDS011;41589;51.196;7.074;2023-05-10T00:33:11;2.67;;;2.57;;
19575;SDS011;41589;51.196;7.074;2023-05-10T00:38:12;2.47;;;2.37;;
19575;SDS011;41589;51.196;7.074;2023-05-10T00:43:12;2.20;;;2.10;;
19575;SDS011;41589;51.196;7.074;2023-05-10T00:48:13;2.40;;;2.23;;
19575;SDS011;41589;51.196;7.074;2023-05-10T00:53:14;6.60;;;4.60;;
19575;SDS011;41589;51.196;7.074;2023-05-10T00:58:15;4.07;;;3.77;;
19575;SDS011;41589;51.196;7.074;2023-05-10T01:03:15;3.37;;;3.17;;
19575;SDS011;41589;51.196;7.074;2023-05-10T01:08:16;3.30;;;3.10;;
19575;SDS011;41589;51.196;7.074;2023-05-10T01:13:29;3.90;;;3.60;;
19575;SDS011;41589;51.196;7.074;2023-05-10T01:18:33;3.90;;;3.60;;
19575;SDS011;41589;51.196;7.074;2023-05-10T01:34:13;3.50;;;3.30;;
19575;SDS011;41589;51.196;7.074;2023-05-10T01:44:35;3.10;;;2.90;;
19575;SDS011;41589;51.196;7.074;2023-05-10T01:49:47;2.90;;;2.70;;
19575;SDS011;41589;51.196;7.074;2023-05-10T01:54:59;3.03;;;2.83;;
19575;SDS011;41589;51.196;7.074;2023-05-10T02:00:03;2.77;;;2.57;;
19575;SDS011;41589;51.196;7.074;2023-05-10T02:05:14;3.00;;;2.80;;
19575;SDS011;41589;51.196;7.074;2023-05-10T02:10:17;2.30;;;2.20;;
19575;SDS011;41589;51.196;7.074;2023-05-10T02:15:22;2.33;;;2.23;;
19575;SDS011;41589;51.196;7.074;2023-05-10T02:20:23;2.67;;;2.50;;
19575;SDS011;41589;51.196;7.074;2023-05-10T02:25:25;3.20;;;3.00;;
19575;SDS011;41589;51.196;7.074;2023-05-10T02:30:27;2.90;;;2.70;;
19575;SDS011;41589;51.196;7.074;2023-05-10T02:35:28;3.13;;;2.93;;
19575;SDS011;41589;51.196;7.074;2023-05-10T02:40:29;3.57;;;3.27;;
19575;SDS011;41589;51.196;7.074;2023-05-10T02:45:31;3.60;;;3.40;;
19575;SDS011;41589;51.196;7.074;2023-05-10T02:50:33;3.37;;;3.17;;
19575;SDS011;41589;51.196;7.074;2023-05-10T02:55:36;3.30;;;3.10;;
19575;SDS011;41589;51.196;7.074;2023-05-10T03:00:38;2.77;;;2.57;;
19575;SDS011;41589;51.196;7.074;2023-05-10T03:05:39;3.00;;;2.80;;
19575;SDS011;41589;51.196;7.074;2023-05-10T03:11:50;3.40;;;3.20;;
19575;SDS011;41589;51.196;7.074;2023-05-10T03:16:36;3.20;;;3.00;;
19575;SDS011;41589;51.196;7.074;2023-05-10T03:21:47;3.63;;;3.33;;
19575;SDS011;41589;51.196;7.074;2023-05-10T03:26:51;3.40;;;3.10;;
19575;SDS011;41589;51.196;7.074;2023-05-10T03:31:57;3.50;;;3.30;;
19575;SDS011;41589;51.196;7.074;2023-05-10T03:37:02;3.87;;;3.57;;
19575;SDS011;41589;51.196;7.074;2023-05-10T03:42:05;3.93;;;3.63;;
19575;SDS011;41589;51.196;7.074;2023-05-10T03:47:06;3.63;;;3.40;;
19575;SDS011;41589;51.196;7.074;2023-05-10T03:52:07;3.70;;;3.40;;
19575;SDS011;41589;51.196;7.074;2023-05-10T03:57:08;3.87;;;3.63;;
19575;SDS011;41589;51.196;7.074;2023-05-10T04:02:09;3.67;;;3.37;;
19575;SDS011;41589;51.196;7.074;2023-05-10T04:07:10;4.77;;;4.37;;
19575;SDS011;41589;51.196;7.074;2023-05-10T04:12:10;4.60;;;4.30;;
19575;SDS011;41589;51.196;7.074;2023-05-10T04:17:11;5.20;;;4.83;;
19575;SDS011;41589;51.196;7.074;2023-05-10T04:22:11;6.00;;;5.50;;
19575;SDS011;41589;51.196;7.074;2023-05-10T04:27:11;7.10;;;6.50;;
19575;SDS011;41589;51.196;7.074;2023-05-10T04:32:12;7.67;;;6.97;;
19575;SDS011;41589;51.196;7.074;2023-05-10T04:37:12;7.27;;;6.57;;
19575;SDS011;41589;51.196;7.074;2023-05-10T04:42:13;6.80;;;6.10;;
19575;SDS011;41589;51.196;7.074;2023-05-10T04:47:14;6.50;;;6.00;;
19575;SDS011;41589;51.196;7.074;2023-05-10T04:52:16;6.60;;;6.00;;
19575;SDS011;41589;51.196;7.074;2023-05-10T04:57:17;7.53;;;6.30;;
19575;SDS011;41589;51.196;7.074;2023-05-10T05:02:18;8.47;;;7.77;;
19575;SDS011;41589;51.196;7.074;2023-05-10T05:07:18;8.40;;;7.60;;
19575;SDS011;41589;51.196;7.074;2023-05-10T05:12:19;8.73;;;8.00;;
19575;SDS011;41589;51.196;7.074;2023-05-10T05:17:19;8.53;;;7.77;;
19575;SDS011;41589;51.196;7.074;2023-05-10T05:22:19;9.17;;;8.33;;
19575;SDS011;41589;51.196;7.074;2023-05-10T05:27:26;9.43;;;8.53;;
19575;SDS011;41589;51.196;7.074;2023-05-10T05:32:27;8.83;;;8.03;;
19575;SDS011;41589;51.196;7.074;2023-05-10T05:37:28;9.20;;;8.17;;
19575;SDS011;41589;51.196;7.074;2023-05-10T05:42:28;8.00;;;7.30;;
19575;SDS011;41589;51.196;7.074;2023-05-10T05:47:28;8.50;;;7.63;;
19575;SDS011;41589;51.196;7.074;2023-05-10T05:52:29;7.93;;;7.33;;
19575;SDS011;41589;51.196;7.074;2023-05-10T05:57:30;7.53;;;6.83;;
19575;SDS011;41589;51.196;7.074;2023-05-10T06:02:30;7.00;;;6.50;;
19575;SDS011;41589;51.196;7.074;2023-05-10T06:07:31;6.90;;;6.40;;
19575;SDS011;41589;51.196;7.074;2023-05-10T06:12:31;5.63;;;5.23;;
19575;SDS011;41589;51.196;7.074;2023-05-10T06:17:32;6.03;;;5.60;;
19575;SDS011;41589;51.196;7.074;2023-05-10T06:22:32;5.93;;;5.43;;
19575;SDS011;41589;51.196;7.074;2023-05-10T06:27:33;6.53;;;5.93;;
19575;SDS011;41589;51.196;7.074;2023-05-10T06:32:33;6.00;;;5.60;;
19575;SDS011;41589;51.196;7.074;2023-05-10T06:37:33;5.30;;;4.90;;
19575;SDS011;41589;51.196;7.074;2023-05-10T06:42:34;4.77;;;4.37;;
19575;SDS011;41589;51.196;7.074;2023-05-10T06:47:36;5.00;;;4.60;;
19575;SDS011;41589;51.196;7.074;2023-05-10T06:52:37;5.37;;;4.87;;
19575;SDS011;41589;51.196;7.074;2023-05-10T06:57:37;5.70;;;5.30;;
19575;SDS011;41589;51.196;7.074;2023-05-10T07:02:38;4.97;;;4.57;;
19575;SDS011;41589;51.196;7.074;2023-05-10T07:07:38;5.33;;;4.87;;
19575;SDS011;41589;51.196;7.074;2023-05-10T07:12:39;5.33;;;4.93;;
19575;SDS011;41589;51.196;7.074;2023-05-10T07:17:39;5.30;;;5.00;;
19575;SDS011;41589;51.196;7.074;2023-05-10T07:22:40;6.20;;;5.70;;
19575;SDS011;41589;51.196;7.074;2023-05-10T07:27:40;5.20;;;4.80;;
19575;SDS011;41589;51.196;7.074;2023-05-10T07:32:41;5.07;;;4.63;;
19575;SDS011;41589;51.196;7.074;2023-05-10T07:37:41;6.27;;;5.77;;
19575;SDS011;41589;51.196;7.074;2023-05-10T07:42:42;7.23;;;6.53;;
19575;SDS011;41589;51.196;7.074;2023-05-10T07:47:42;8.17;;;6.77;;
19575;SDS011;41589;51.196;7.074;2023-05-10T07:52:42;7.47;;;6.77;;
19575;SDS011;41589;51.196;7.074;2023-05-10T07:57:43;7.07;;;6.37;;
19575;SDS011;41589;51.196;7.074;2023-05-10T08:02:43;7.20;;;6.50;;
19575;SDS011;41589;51.196;7.074;2023-05-10T08:07:43;6.80;;;6.20;;
19575;SDS011;41589;51.196;7.074;2023-05-10T08:12:44;6.83;;;6.17;;
19575;SDS011;41589;51.196;7.074;2023-05-10T08:17:44;6.40;;;5.80;;
19575;SDS011;41589;51.196;7.074;2023-05-10T08:22:45;5.33;;;4.93;;
19575;SDS011;41589;51.196;7.074;2023-05-10T08:27:46;5.27;;;4.83;;
19575;SDS011;41589;51.196;7.074;2023-05-10T08:32:46;4.60;;;4.30;;
19575;SDS011;41589;51.196;7.074;2023-05-10T08:37:46;4.80;;;4.50;;
19575;SDS011;41589;51.196;7.074;2023-05-10T08:42:51;4.60;;;4.30;;
19575;SDS011;41589;51.196;7.074;2023-05-10T08:47:59;4.40;;;4.00;;
19575;SDS011;41589;51.196;7.074;2023-05-10T08:53:02;3.47;;;3.27;;
19575;SDS011;41589;51.196;7.074;2023-05-10T08:58:05;5.37;;;4.97;;
19575;SDS011;41589;51.196;7.074;2023-05-10T09:03:06;5.23;;;4.83;;
19575;SDS011;41589;51.196;7.074;2023-05-10T09:08:07;5.60;;;5.20;;
19575;SDS011;41589;51.196;7.074;2023-05-10T09:13:09;5.90;;;5.40;;
19575;SDS011;41589;51.196;7.074;2023-05-10T09:18:11;5.70;;;5.30;;
19575;SDS011;41589;51.196;7.074;2023-05-10T09:23:12;6.37;;;5.90;;
19575;SDS011;41589;51.196;7.074;2023-05-10T09:28:12;5.27;;;4.87;;
19575;SDS011;41589;51.196;7.074;2023-05-10T09:33:13;5.40;;;5.10;;
19575;SDS011;41589;51.196;7.074;2023-05-10T09:38:13;5.20;;;4.80;;
19575;SDS011;41589;51.196;7.074;2023-05-10T09:43:13;5.40;;;5.10;;
19575;SDS011;41589;51.196;7.074;2023-05-10T09:48:14;5.83;;;5.43;;
19575;SDS011;41589;51.196;7.074;2023-05-10T09:53:14;6.27;;;5.77;;
19575;SDS011;41589;51.196;7.074;2023-05-10T09:58:15;6.17;;;5.77;;
19575;SDS011;41589;51.196;7.074;2023-05-10T10:03:16;6.30;;;5.87;;
19575;SDS011;41589;51.196;7.074;2023-05-10T10:08:18;5.70;;;5.30;;
19575;SDS011;41589;51.196;7.074;2023-05-10T10:13:18;5.67;;;5.27;;
19575;SDS011;41589;51.196;7.074;2023-05-10T10:18:19;5.37;;;5.07;;
19575;SDS011;41589;51.196;7.074;2023-05-10T10:23:23;5.33;;;4.97;;
19575;SDS011;41589;51.196;7.074;2023-05-10T10:28:41;5.03;;;4.73;;
19575;SDS011;41589;51.196;7.074;2023-05-10T10:34:08;5.33;;;5.03;;
19575;SDS011;41589;51.196;7.074;2023-05-10T10:39:11;4.63;;;4.33;;
19575;SDS011;41589;51.196;7.074;2023-05-10T10:49:38;4.40;;;4.10;;
19575;SDS011;41589;51.196;7.074;2023-05-10T10:54:56;4.50;;;4.20;;
19575;SDS011;41589;51.196;7.074;2023-05-10T11:10:26;4.23;;;4.00;;
19575;SDS011;41589;51.196;7.074;2023-05-10T11:15:31;3.50;;;3.30;;
19575;SDS011;41589;51.196;7.074;2023-05-10T11:20:38;4.00;;;3.80;;
19575;SDS011;41589;51.196;7.074;2023-05-10T11:25:42;3.40;;;3.20;;
19575;SDS011;41589;51.196;7.074;2023-05-10T11:30:44;3.50;;;3.30;;
19575;SDS011;41589;51.196;7.074;2023-05-10T11:35:45;3.37;;;3.17;;
19575;SDS011;41589;51.196;7.074;2023-05-10T11:40:46;3.40;;;3.10;;
19575;SDS011;41589;51.196;7.074;2023-05-10T11:45:46;3.20;;;2.90;;
19575;SDS011;41589;51.196;7.074;2023-05-10T11:50:46;2.97;;;2.77;;
19575;SDS011;41589;51.196;7.074;2023-05-10T11:55:47;3.20;;;3.00;;
19575;SDS011;41589;51.196;7.074;2023-05-10T12:00:48;2.80;;;2.70;;
19575;SDS011;41589;51.196;7.074;2023-05-10T12:05:49;3.53;;;3.33;;
19575;SDS011;41589;51.196;7.074;2023-05-10T12:10:50;3.30;;;3.10;;
19575;SDS011;41589;51.196;7.074;2023-05-10T12:15:50;3.40;;;3.20;;
19575;SDS011;41589;51.196;7.074;2023-05-10T12:20:54;3.60;;;3.40;;
19575;SDS011;41589;51.196;7.074;2023-05-10T12:26:01;3.40;;;3.30;;
19575;SDS011;41589;51.196;7.074;2023-05-10T12:31:02;3.23;;;3.03;;
19575;SDS011;41589;51.196;7.074;2023-05-10T12:36:04;3.90;;;3.70;;
19575;SDS011;41589;51.196;7.074;2023-05-10T12:41:06;3.60;;;3.40;;
19575;SDS011;41589;51.196;7.074;2023-05-10T12:46:11;3.83;;;3.63;;
19575;SDS011;41589;51.196;7.074;2023-05-10T12:51:14;3.90;;;3.70;;
19575;SDS011;41589;51.196;7.074;2023-05-10T12:56:17;3.20;;;3.00;;
19575;SDS011;41589;51.196;7.074;2023-05-10T13:01:17;3.17;;;3.00;;
19575;SDS011;41589;51.196;7.074;2023-05-10T13:06:17;3.47;;;3.27;;
19575;SDS011;41589;51.196;7.074;2023-05-10T13:11:18;3.90;;;3.70;;
19575;SDS011;41589;51.196;7.074;2023-05-10T13:16:19;3.40;;;3.20;;
19575;SDS011;41589;51.196;7.074;2023-05-10T13:21:21;3.33;;;3.13;;
19575;SDS011;41589;51.196;7.074;2023-05-10T13:26:21;3.57;;;3.37;;
19575;SDS011;41589;51.196;7.074;2023-05-10T13:31:21;3.43;;;3.20;;
19575;SDS011;41589;51.196;7.074;2023-05-10T13:36:22;3.80;;;3.60;;
19575;SDS011;41589;51.196;7.074;2023-05-10T13:41:22;4.23;;;3.93;;
19575;SDS011;41589;51.196;7.074;2023-05-10T13:46:23;3.87;;;3.67;;
19575;SDS011;41589;51.196;7.074;2023-05-10T13:51:23;3.70;;;3.50;;
19575;SDS011;41589;51.196;7.074;2023-05-10T13:56:23;4.00;;;3.80;;
19575;SDS011;41589;51.196;7.074;2023-05-10T14:01:24;3.53;;;3.33;;
19575;SDS011;41589;51.196;7.074;2023-05-10T14:06:24;3.47;;;3.27;;
19575;SDS011;41589;51.196;7.074;2023-05-10T14:11:25;3.37;;;3.27;;
19575;SDS011;41589;51.196;7.074;2023-05-10T14:16:25;3.40;;;3.20;;
19575;SDS011;41589;51.196;7.074;2023-05-10T14:21:27;3.37;;;3.17;;
19575;SDS011;41589;51.196;7.074;2023-05-10T14:26:29;3.73;;;3.53;;
19575;SDS011;41589;51.196;7.074;2023-05-10T14:31:29;3.60;;;3.40;;
19575;SDS011;41589;51.196;7.074;2023-05-10T14:36:30;3.30;;;3.13;;
19575;SDS011;41589;51.196;7.074;2023-05-10T14:41:30;3.30;;;3.10;;
19575;SDS011;41589;51.196;7.074;2023-05-10T14:46:30;2.40;;;2.30;;
19575;SDS011;41589;51.196;7.074;2023-05-10T14:51:31;3.10;;;2.90;;
19575;SDS011;41589;51.196;7.074;2023-05-10T14:56:31;3.13;;;3.03;;
19575;SDS011;41589;51.196;7.074;2023-05-10T15:01:32;3.07;;;2.87;;
19575;SDS011;41589;51.196;7.074;2023-05-10T15:06:33;3.10;;;2.97;;
19575;SDS011;41589;51.196;7.074;2023-05-10T15:11:35;2.77;;;2.67;;
19575;SDS011;41589;51.196;7.074;2023-05-10T15:16:35;3.37;;;3.17;;
19575;SDS011;41589;51.196;7.074;2023-05-10T15:21:36;2.93;;;2.73;;
19575;SDS011;41589;51.196;7.074;2023-05-10T15:26:38;3.50;;;3.30;;
19575;SDS011;41589;51.196;7.074;2023-05-10T15:31:39;2.43;;;2.33;;
19575;SDS011;41589;51.196;7.074;2023-05-10T15:36:39;2.40;;;2.30;;
19575;SDS011;41589;51.196;7.074;2023-05-10T15:41:40;2.30;;;2.20;;
19575;SDS011;41589;51.196;7.074;2023-05-10T15:46:40;1.90;;;1.80;;
19575;SDS011;41589;51.196;7.074;2023-05-10T15:52:25;1.60;;;1.60;;
19575;SDS011;41589;51.196;7.074;2023-05-10T16:03:14;1.87;;;1.77;;
19575;SDS011;41589;51.196;7.074;2023-05-10T16:08:40;1.87;;;1.77;;
19575;SDS011;41589;51.196;7.074;2023-05-10T16:13:41;1.90;;;1.80;;
19575;SDS011;41589;51.196;7.074;2023-05-10T16:19:32;2.37;;;1.90;;
19575;SDS011;41589;51.196;7.074;2023-05-10T16:30:15;1.80;;;1.70;;
19575;SDS011;41589;51.196;7.074;2023-05-10T16:42:15;2.00;;;1.80;;
19575;SDS011;41589;51.196;7.074;2023-05-10T16:53:58;1.90;;;1.80;;
19575;SDS011;41589;51.196;7.074;2023-05-10T16:59:02;2.07;;;1.97;;
19575;SDS011;41589;51.196;7.074;2023-05-10T17:04:03;1.93;;;1.83;;
19575;SDS011;41589;51.196;7.074;2023-05-10T17:09:21;2.20;;;2.10;;
19575;SDS011;41589;51.196;7.074;2023-05-10T17:14:29;1.97;;;1.87;;
19575;SDS011;41589;51.196;7.074;2023-05-10T17:19:45;1.57;;;1.57;;
19575;SDS011;41589;51.196;7.074;2023-05-10T17:24:51;2.03;;;1.80;;
19575;SDS011;41589;51.196;7.074;2023-05-10T17:29:55;2.10;;;1.90;;
19575;SDS011;41589;51.196;7.074;2023-05-10T17:34:56;1.83;;;1.73;;
19575;SDS011;41589;51.196;7.074;2023-05-10T17:39:58;2.30;;;2.20;;
19575;SDS011;41589;51.196;7.074;2023-05-10T17:44:59;2.20;;;1.83;;
19575;SDS011;41589;51.196;7.074;2023-05-10T17:49:59;1.93;;;1.60;;
19575;SDS011;41589;51.196;7.074;2023-05-10T17:55:00;1.40;;;1.40;;
19575;SDS011;41589;51.196;7.074;2023-05-10T18:00:19;1.87;;;1.77;;
19575;SDS011;41589;51.196;7.074;2023-05-10T18:05:20;1.83;;;1.63;;
19575;SDS011;41589;51.196;7.074;2023-05-10T18:10:20;1.80;;;1.70;;
19575;SDS011;41589;51.196;7.074;2023-05-10T18:15:25;1.83;;;1.70;;
19575;SDS011;41589;51.196;7.074;2023-05-10T18:20:25;1.80;;;1.70;;
19575;SDS011;41589;51.196;7.074;2023-05-10T18:25:26;2.23;;;1.53;;
19575;SDS011;41589;51.196;7.074;2023-05-10T18:30:30;2.10;;;1.73;;
19575;SDS011;41589;51.196;7.074;2023-05-10T18:35:30;1.87;;;1.77;;
19575;SDS011;41589;51.196;7.074;2023-05-10T18:46:08;1.83;;;1.73;;
19575;SDS011;41589;51.196;7.074;2023-05-10T18:51:09;1.60;;;1.50;;
19575;SDS011;41589;51.196;7.074;2023-05-10T18:56:15;1.60;;;1.50;;
19575;SDS011;41589;51.196;7.074;2023-05-10T19:01:16;1.30;;;1.30;;
19575;SDS011;41589;51.196;7.074;2023-05-10T19:06:16;1.30;;;1.30;;
19575;SDS011;41589;51.196;7.074;2023-05-10T19:11:17;1.10;;;1.10;;
19575;SDS011;41589;51.196;7.074;2023-05-10T19:16:18;1.20;;;1.20;;
19575;SDS011;41589;51.196;7.074;2023-05-10T19:21:19;1.43;;;1.33;;
19575;SDS011;41589;51.196;7.074;2023-05-10T19:26:19;1.27;;;1.27;;
19575;SDS011;41589;51.196;7.074;2023-05-10T19:31:21;1.67;;;1.57;;
19575;SDS011;41589;51.196;7.074;2023-05-10T19:36:22;1.60;;;1.50;;
19575;SDS011;41589;51.196;7.074;2023-05-10T19:41:22;1.53;;;1.53;;
19575;SDS011;41589;51.196;7.074;2023-05-10T19:46:23;1.70;;;1.67;;
19575;SDS011;41589;51.196;7.074;2023-05-10T19:51:23;2.40;;;2.30;;
19575;SDS011;41589;51.196;7.074;2023-05-10T19:56:24;3.90;;;3.70;;
19575;SDS011;41589;51.196;7.074;2023-05-10T20:01:25;2.00;;;1.90;;
19575;SDS011;41589;51.196;7.074;2023-05-10T20:06:26;2.43;;;2.33;;
19575;SDS011;41589;51.196;7.074;2023-05-10T20:11:26;2.77;;;2.27;;
19575;SDS011;41589;51.196;7.074;2023-05-10T20:16:27;2.90;;;2.70;;
19575;SDS011;41589;51.196;7.074;2023-05-10T20:21:27;2.83;;;2.73;;
19575;SDS011;41589;51.196;7.074;2023-05-10T20:26:27;3.70;;;3.40;;
19575;SDS011;41589;51.196;7.074;2023-05-10T20:31:28;3.43;;;3.23;;
19575;SDS011;41589;51.196;7.074;2023-05-10T20:36:28;3.10;;;2.90;;
19575;SDS011;41589;51.196;7.074;2023-05-10T20:41:30;3.40;;;3.20;;
19575;SDS011;41589;51.196;7.074;2023-05-10T20:46:31;3.53;;;3.33;;
19575;SDS011;41589;51.196;7.074;2023-05-10T20:51:31;3.87;;;3.57;;
19575;SDS011;41589;51.196;7.074;2023-05-10T20:56:32;3.70;;;3.50;;
19575;SDS011;41589;51.196;7.074;2023-05-10T21:01:33;3.07;;;2.87;;
19575;SDS011;41589;51.196;7.074;2023-05-10T21:06:33;2.87;;;2.77;;
19575;SDS011;41589;51.196;7.074;2023-05-10T21:11:33;4.00;;;3.70;;
19575;SDS011;41589;51.196;7.074;2023-05-10T21:16:43;3.20;;;3.00;;
19575;SDS011;41589;51.196;7.074;2023-05-10T21:21:43;3.27;;;3.07;;
19575;SDS011;41589;51.196;7.074;2023-05-10T21:26:44;3.47;;;3.27;;
19575;SDS011;41589;51.196;7.074;2023-05-10T21:31:44;3.43;;;3.23;;
19575;SDS011;41589;51.196;7.074;2023-05-10T21:36:45;3.53;;;3.33;;
19575;SDS011;41589;51.196;7.074;2023-05-10T21:41:45;3.53;;;3.33;;
19575;SDS011;41589;51.196;7.074;2023-05-10T21:46:46;3.50;;;3.30;;
19575;SDS011;41589;51.196;7.074;2023-05-10T21:51:47;3.33;;;3.13;;
19575;SDS011;41589;51.196;7.074;2023-05-10T21:56:48;2.77;;;2.60;;
19575;SDS011;41589;51.196;7.074;2023-05-10T22:01:48;3.30;;;3.10;;
19575;SDS011;41589;51.196;7.074;2023-05-10T22:06:49;3.70;;;3.40;;
19575;SDS011;41589;51.196;7.074;2023-05-10T22:11:49;3.63;;;3.43;;
19575;SDS011;41589;51.196;7.074;2023-05-10T22:16:50;3.87;;;3.67;;
19575;SDS011;41589;51.196;7.074;2023-05-10T22:21:50;4.40;;;4.10;;
19575;SDS011;41589;51.196;7.074;2023-05-10T22:26:54;4.67;;;4.37;;
19575;SDS011;41589;51.196;7.074;2023-05-10T22:31:55;4.27;;;3.97;;
19575;SDS011;41589;51.196;7.074;2023-05-10T22:36:56;3.73;;;3.43;;
19575;SDS011;41589;51.196;7.074;2023-05-10T22:41:56;4.10;;;3.70;;
19575;SDS011;41589;51.196;7.074;2023-05-10T22:46:56;4.40;;;4.10;;
19575;SDS011;41589;51.196;7.074;2023-05-10T22:51:57;5.83;;;5.33;;
19575;SDS011;41589;51.196;7.074;2023-05-10T22:56:57;4.60;;;4.30;;
19575;SDS011;41589;51.196;7.074;2023-05-10T23:01:58;4.43;;;4.13;;
19575;SDS011;41589;51.196;7.074;2023-05-10T23:06:58;5.10;;;4.70;;
19575;SDS011;41589;51.196;7.074;2023-05-10T23:11:58;4.30;;;4.00;;
19575;SDS011;41589;51.196;7.074;2023-05-10T23:16:59;4.63;;;4.30;;
19575;SDS011;41589;51.196;7.074;2023-05-10T23:21:59;5.13;;;4.73;;
19575;SDS011;41589;51.196;7.074;2023-05-10T23:26:59;4.73;;;4.43;;
19575;SDS011;41589;51.196;7.074;2023-05-10T23:31:59;5.23;;;4.83;;
19575;SDS011;41589;51.196;7.074;2023-05-10T23:37:00;4.50;;;4.20;;
19575;SDS011;41589;51.196;7.074;2023-05-10T23:42:01;4.30;;;4.00;;
19575;SDS011;41589;51.196;7.074;2023-05-10T23:47:02;3.97;;;3.73;;
19575;SDS011;41589;51.196;7.074;2023-05-10T23:52:02;4.23;;;3.93;;
19575;SDS011;41589;51.196;7.074;2023-05-10T23:57:03;5.50;;;5.10;;
